Time;durP1;ratioP1;P1;durP2;ratioP2;P2;SDS_P1;SDS_P2;PMS_P1;PMS_P2;Temp;Humidity;BMP_temperature;BMP_pressure;BME280_temperature;BME280_humidity;BME280_pressure;Samples;Min_cycle;Max_cycle;Signal;HPM_P1;HPM_P2
2022/05/29 00:01:05;;;;;;;2.92;1.40;;;13.60;75.60;;;;;;5036376;28;20028;-90
2022/05/29 00:03:30;;;;;;;2.35;1.50;;;13.60;75.70;;;;;;5035126;28;20478;-90
2022/05/29 00:05:56;;;;;;;3.03;1.23;;;13.60;75.40;;;;;;5035647;28;20133;-91
2022/05/29 00:08:27;;;;;;;3.08;1.70;;;13.50;75.30;;;;;;5035908;28;20025;-89
2022/05/29 00:10:53;;;;;;;10.07;2.00;;;13.50;75.10;;;;;;5054194;28;20098;-90
2022/05/29 00:13:19;;;;;;;3.38;1.70;;;13.50;74.90;;;;;;5036209;28;20104;-90
2022/05/29 00:15:45;;;;;;;3.28;1.80;;;13.40;75.20;;;;;;5035370;28;20025;-90
2022/05/29 00:18:11;;;;;;;5.78;1.83;;;13.30;75.70;;;;;;5035658;28;20028;-90
2022/05/29 00:20:38;;;;;;;4.93;1.52;;;13.30;75.70;;;;;;5035960;28;20099;-90
2022/05/29 00:23:04;;;;;;;1.60;1.33;;;13.30;75.50;;;;;;5035684;28;20452;-89
2022/05/29 00:25:31;;;;;;;2.75;1.55;;;13.30;75.30;;;;;;5035569;28;20033;-91
2022/05/29 00:27:56;;;;;;;3.38;1.70;;;13.30;75.50;;;;;;5036022;28;20111;-90
2022/05/29 00:30:22;;;;;;;4.45;1.60;;;13.30;75.50;;;;;;5035794;28;20470;-90
2022/05/29 00:32:47;;;;;;;2.80;1.80;;;13.30;75.90;;;;;;5036300;28;20017;-89
2022/05/29 00:35:13;;;;;;;7.82;2.20;;;13.30;76.20;;;;;;5035638;28;20024;-90
2022/05/29 00:37:41;;;;;;;3.65;2.17;;;13.30;76.40;;;;;;5034345;28;20172;-89
2022/05/29 00:40:36;;;;;;;3.83;1.80;;;13.30;76.40;;;;;;5029054;28;20304;-89
2022/05/29 00:43:02;;;;;;;4.95;2.10;;;13.20;76.80;;;;;;5033605;28;20616;-90
2022/05/29 00:45:31;;;;;;;4.32;2.40;;;13.20;76.90;;;;;;5034692;28;20405;-90
2022/05/29 00:47:57;;;;;;;3.17;2.25;;;13.20;76.90;;;;;;5035050;28;20511;-90
2022/05/29 00:50:23;;;;;;;4.55;2.47;;;13.20;77.10;;;;;;5031057;28;20029;-90
2022/05/29 00:52:50;;;;;;;4.97;2.08;;;13.20;77.10;;;;;;5035052;28;20021;-90
2022/05/29 00:55:29;;;;;;;3.72;2.03;;;13.20;77.30;;;;;;5034748;28;20075;-90
2022/05/29 00:58:01;;;;;;;5.50;2.40;;;13.30;77.40;;;;;;5035340;28;20374;-89
2022/05/29 01:00:28;;;;;;;7.53;2.13;;;13.30;77.40;;;;;;5034834;28;20074;-89
2022/05/29 01:02:56;;;;;;;2.10;1.67;;;13.30;77.10;;;;;;5031267;28;20036;-90
2022/05/29 01:05:24;;;;;;;2.97;1.65;;;13.30;77.70;;;;;;5032751;28;20103;-90
2022/05/29 01:08:04;;;;;;;4.53;2.00;;;13.20;77.20;;;;;;5034566;28;20128;-90
2022/05/29 01:10:49;;;;;;;5.18;2.05;;;13.20;77.40;;;;;;5032616;28;20036;-90
2022/05/29 01:13:24;;;;;;;3.47;1.70;;;13.30;77.40;;;;;;5032814;28;20025;-89
2022/05/29 01:16:03;;;;;;;3.53;1.90;;;13.20;77.40;;;;;;5032194;28;20027;-89
2022/05/29 01:18:45;;;;;;;4.03;1.98;;;13.20;77.50;;;;;;5033070;28;20036;-90
2022/05/29 01:21:37;;;;;;;2.97;1.90;;;13.20;77.60;;;;;;5014575;28;20022;-90
2022/05/29 01:24:09;;;;;;;;;;;13.20;77.60;;;;;;5033107;28;20018;-90
2022/05/29 01:27:13;;;;;;;3.08;1.77;;;13.20;77.30;;;;;;5030030;28;19999;-90
2022/05/29 01:30:03;;;;;;;3.30;1.55;;;13.20;77.40;;;;;;4997564;28;20519;-90
2022/05/29 01:32:44;;;;;;;2.40;1.58;;;13.20;77.50;;;;;;5052660;28;20096;-90
2022/05/29 01:35:27;;;;;;;2.08;1.40;;;13.20;77.60;;;;;;5052894;28;20023;-90
2022/05/29 01:38:02;;;;;;;1.40;1.30;;;13.20;77.30;;;;;;5034941;28;20021;-90
2022/05/29 01:40:53;;;;;;;3.03;1.50;;;13.10;77.20;;;;;;5034814;28;20488;-90
2022/05/29 01:43:27;;;;;;;2.45;1.35;;;13.10;77.10;;;;;;5026290;28;20074;-90
2022/05/29 01:46:07;;;;;;;5.28;1.50;;;13.10;77.00;;;;;;5051736;28;20154;-90
2022/05/29 01:48:35;;;;;;;2.95;1.52;;;13.00;76.90;;;;;;5026630;28;20025;-90
2022/05/29 01:51:07;;;;;;;4.20;1.23;;;13.00;76.60;;;;;;5016570;28;20079;-90
2022/05/29 01:53:41;;;;;;;1.83;1.30;;;13.00;76.60;;;;;;5016160;28;20478;-90
2022/05/29 01:56:18;;;;;;;6.53;1.45;;;13.00;76.50;;;;;;5014864;28;20033;-90
2022/05/29 01:58:50;;;;;;;1.75;0.95;;;12.90;76.20;;;;;;5014491;28;20021;-89
2022/05/29 02:01:18;;;;;;;5.35;1.10;;;12.90;76.00;;;;;;5029655;28;20017;-89
2022/05/29 02:03:48;;;;;;;2.70;1.20;;;12.80;75.90;;;;;;5033966;28;20025;-89
2022/05/29 02:06:20;;;;;;;3.65;1.30;;;12.80;76.30;;;;;;5052194;28;20025;-90
2022/05/29 02:08:58;;;;;;;5.25;1.20;;;12.70;76.50;;;;;;5034405;28;20031;-89
2022/05/29 02:11:26;;;;;;;5.05;1.30;;;12.70;76.50;;;;;;5052301;28;20103;-90
2022/05/29 02:14:14;;;;;;;1.38;0.93;;;12.70;76.60;;;;;;5034316;28;20032;-90
2022/05/29 02:16:46;;;;;;;2.05;1.20;;;12.70;76.70;;;;;;5052473;28;20103;-90
2022/05/29 02:19:28;;;;;;;1.77;1.40;;;12.70;76.70;;;;;;5034808;28;20080;-89
2022/05/29 02:22:01;;;;;;;2.53;1.33;;;12.70;76.90;;;;;;5014622;28;20452;-90
2022/05/29 02:24:37;;;;;;;;;;;12.70;76.50;;;;;;5015087;28;20029;-91
2022/05/29 02:27:21;;;;;;;2.75;1.10;;;12.70;76.30;;;;;;5015064;28;20396;-89
2022/05/29 02:29:47;;;;;;;3.33;1.33;;;12.70;76.40;;;;;;5018176;28;20033;-89
2022/05/29 02:32:15;;;;;;;1.83;1.20;;;12.60;76.30;;;;;;5050539;28;20053;-88
2022/05/29 02:35:02;;;;;;;4.05;1.08;;;12.60;76.20;;;;;;5049025;28;20047;-88
2022/05/29 02:37:35;;;;;;;6.88;1.50;;;12.60;76.10;;;;;;5040314;28;20033;-90
2022/05/29 02:40:03;;;;;;;;;;;12.50;76.10;;;;;;5031488;28;20032;-90
2022/05/29 02:43:06;;;;;;;4.97;1.08;;;12.40;76.10;;;;;;5032057;28;20365;-89
2022/05/29 02:45:43;;;;;;;2.78;1.55;;;12.40;76.40;;;;;;5033842;28;20025;-90
2022/05/29 02:48:25;;;;;;;3.50;1.10;;;12.30;76.40;;;;;;5047998;28;20079;-90
2022/05/29 02:50:53;;;;;;;;;;;12.30;76.50;;;;;;5015249;28;20557;-90
2022/05/29 02:53:19;;;;;;;4.53;1.23;;;12.30;76.40;;;;;;5014467;28;19905;-90
2022/05/29 02:55:45;;;;;;;2.38;1.30;;;12.30;76.50;;;;;;5032198;28;20241;-90
2022/05/29 02:58:34;;;;;;;2.40;1.30;;;12.20;76.60;;;;;;5032377;28;20028;-89
2022/05/29 03:01:00;;;;;;;5.18;1.20;;;12.20;76.80;;;;;;5028230;28;20021;-89
2022/05/29 03:03:53;;;;;;;1.77;1.45;;;12.20;76.80;;;;;;5033506;28;20511;-90
2022/05/29 03:06:39;;;;;;;2.50;1.50;;;12.10;77.00;;;;;;5054697;28;20037;-88
2022/05/29 03:09:30;;;;;;;3.53;0.98;;;12.10;77.00;;;;;;5042374;28;20055;-89
2022/05/29 03:11:56;;;;;;;2.30;1.17;;;12.00;76.90;;;;;;5040450;28;20030;-89
2022/05/29 03:14:48;;;;;;;3.47;1.20;;;12.00;77.00;;;;;;5039840;28;20029;-90
2022/05/29 03:17:19;;;;;;;3.58;1.80;;;11.90;77.10;;;;;;5040503;28;20472;-90
2022/05/29 03:20:00;;;;;;;3.15;1.13;;;11.90;77.20;;;;;;5037198;28;20032;-89
2022/05/29 03:22:38;;;;;;;3.97;1.42;;;11.80;77.30;;;;;;5037251;28;20037;-89
2022/05/29 03:25:43;;;;;;;3.58;1.20;;;11.80;77.30;;;;;;5036527;28;20028;-90
2022/05/29 03:28:25;;;;;;;2.70;1.10;;;11.80;77.40;;;;;;5055116;28;20108;-89
2022/05/29 03:30:53;;;;;;;2.00;1.15;;;11.80;77.70;;;;;;5037129;28;20119;-89
2022/05/29 03:33:19;;;;;;;2.85;1.20;;;11.80;77.70;;;;;;5054983;28;20021;-90
2022/05/29 03:35:52;;;;;;;4.00;1.27;;;11.80;77.90;;;;;;5037351;28;20396;-90
2022/05/29 03:38:18;;;;;;;4.75;1.50;;;11.80;78.00;;;;;;5055108;28;20028;-90
2022/05/29 03:40:46;;;;;;;4.65;1.70;;;11.80;78.00;;;;;;5036414;28;20485;-89
2022/05/29 03:43:11;;;;;;;4.22;1.63;;;11.80;78.20;;;;;;5037241;28;20041;-90
2022/05/29 03:45:37;;;;;;;3.05;1.40;;;11.80;78.30;;;;;;5036263;28;20481;-89
2022/05/29 03:48:03;;;;;;;5.20;1.42;;;11.80;78.30;;;;;;5037167;28;20029;-88
2022/05/29 03:50:29;;;;;;;2.53;1.35;;;11.80;78.10;;;;;;5036802;28;20083;-89
2022/05/29 03:52:55;;;;;;;3.83;1.42;;;11.80;78.10;;;;;;5037781;28;20021;-91
2022/05/29 03:55:24;;;;;;;1.95;1.17;;;11.70;78.10;;;;;;5036712;28;20028;-89
2022/05/29 03:57:50;;;;;;;4.22;1.02;;;11.70;78.10;;;;;;5055182;28;20021;-90
2022/05/29 04:00:17;;;;;;;3.45;1.42;;;11.60;78.10;;;;;;5037072;28;20124;-89
2022/05/29 04:02:45;;;;;;;2.40;1.20;;;11.60;78.10;;;;;;5036654;28;20091;-89
2022/05/29 04:05:14;;;;;;;5.60;1.30;;;11.50;78.20;;;;;;5036262;28;20028;-89
2022/05/29 04:13:10;;;;;;;7.82;1.15;;;11.40;78.20;;;;;;5053957;28;20116;-90
2022/05/29 04:15:37;;;;;;;1.83;1.00;;;11.40;78.40;;;;;;5034479;28;20024;-89
2022/05/29 04:18:04;;;;;;;2.65;1.08;;;11.40;78.30;;;;;;5037382;28;20025;-90
2022/05/29 04:20:30;;;;;;;3.13;1.25;;;11.30;78.40;;;;;;5035903;28;20024;-90
2022/05/29 04:22:56;;;;;;;2.95;1.00;;;11.30;78.50;;;;;;5035460;28;20420;-89
2022/05/29 04:25:21;;;;;;;4.22;1.10;;;11.30;78.70;;;;;;5035770;28;20040;-90
2022/05/29 04:27:47;;;;;;;2.83;1.00;;;11.30;78.70;;;;;;5036767;28;20111;-90
2022/05/29 04:30:12;;;;;;;3.90;1.17;;;11.40;78.80;;;;;;5036369;28;20439;-90
2022/05/29 04:35:22;;;;;;;2.53;1.30;;;11.40;78.60;;;;;;5053086;28;20071;-89
2022/05/29 04:37:49;;;;;;;2.83;1.17;;;11.40;78.50;;;;;;5035626;28;20473;-89
2022/05/29 04:40:15;;;;;;;3.60;1.02;;;11.40;78.60;;;;;;5035766;28;20048;-89
2022/05/29 04:42:40;;;;;;;5.57;1.23;;;11.40;78.70;;;;;;5053102;28;20029;-90
2022/05/29 04:45:08;;;;;;;5.68;1.13;;;11.50;78.70;;;;;;5053481;28;20076;-89
2022/05/29 04:50:04;;;;;;;3.95;1.23;;;11.50;78.80;;;;;;5072855;28;20051;-89
2022/05/29 04:52:29;;;;;;;2.78;1.08;;;11.50;79.00;;;;;;5045681;28;20026;-91
2022/05/29 04:54:55;;;;;;;4.22;1.30;;;11.50;79.30;;;;;;5035300;28;20064;-91
2022/05/29 04:57:21;;;;;;;6.75;1.38;;;11.50;79.50;;;;;;5015656;28;20025;-91
2022/05/29 04:59:47;;;;;;;5.45;1.42;;;11.60;79.50;;;;;;5016091;28;20079;-91
2022/05/29 05:02:12;;;;;;;3.67;1.30;;;11.60;79.40;;;;;;5015801;28;20036;-92
2022/05/29 05:04:38;;;;;;;1.90;1.00;;;11.70;79.50;;;;;;5014955;28;20038;-91
2022/05/29 05:07:04;;;;;;;3.42;1.08;;;11.80;79.40;;;;;;5016283;28;20036;-91
2022/05/29 05:09:33;;;;;;;5.07;1.40;;;12.00;79.20;;;;;;5016494;28;20033;-91
2022/05/29 05:11:58;;;;;;;3.67;1.05;;;12.10;79.00;;;;;;5016466;28;20025;-92
2022/05/29 05:14:26;;;;;;;3.65;1.15;;;12.30;78.70;;;;;;5015469;28;20028;-91
2022/05/29 05:16:55;;;;;;;3.00;1.38;;;12.30;78.70;;;;;;5012653;28;20033;-92
2022/05/29 05:19:21;;;;;;;4.05;1.40;;;12.40;78.70;;;;;;5015662;28;20083;-91
2022/05/29 05:21:48;;;;;;;3.67;1.10;;;12.40;78.60;;;;;;5018391;28;20029;-91
2022/05/29 05:24:14;;;;;;;2.75;1.00;;;12.50;78.60;;;;;;5028337;28;20036;-91
2022/05/29 05:26:40;;;;;;;1.70;1.05;;;12.50;78.70;;;;;;5022157;28;20026;-92
2022/05/29 05:29:06;;;;;;;7.43;1.73;;;12.50;78.70;;;;;;5020195;28;20454;-90
2022/05/29 05:31:34;;;;;;;1.92;1.20;;;12.50;78.80;;;;;;5014754;28;20134;-91
2022/05/29 05:34:00;;;;;;;4.85;1.15;;;12.50;78.80;;;;;;5015495;28;20041;-91
2022/05/29 05:36:26;;;;;;;5.68;1.10;;;12.60;78.80;;;;;;5022207;28;20028;-92
2022/05/29 05:38:53;;;;;;;3.03;1.25;;;12.60;78.80;;;;;;5024782;28;20021;-91
2022/05/29 05:41:20;;;;;;;2.67;1.00;;;12.60;78.80;;;;;;5022260;28;20120;-91
2022/05/29 05:43:46;;;;;;;2.08;1.00;;;12.70;78.60;;;;;;5016728;28;20063;-91
2022/05/29 05:46:14;;;;;;;3.13;1.20;;;12.70;78.50;;;;;;5013075;28;20550;-90
2022/05/29 05:48:43;;;;;;;4.25;1.15;;;12.70;78.60;;;;;;5016910;28;20033;-90
2022/05/29 05:51:10;;;;;;;3.35;1.10;;;12.60;78.40;;;;;;5017454;28;20030;-89
2022/05/29 05:53:37;;;;;;;3.40;1.25;;;12.60;78.00;;;;;;5017096;28;20445;-89
2022/05/29 05:56:07;;;;;;;4.07;1.17;;;12.50;78.10;;;;;;5015543;28;20017;-90
2022/05/29 05:58:33;;;;;;;2.28;1.13;;;12.50;78.10;;;;;;5015941;28;20112;-90
2022/05/29 06:01:03;;;;;;;4.55;1.27;;;12.40;78.20;;;;;;5015984;28;20025;-91
2022/05/29 06:03:29;;;;;;;6.75;1.08;;;12.30;78.30;;;;;;5015711;28;20171;-90
2022/05/29 06:05:55;;;;;;;7.60;1.45;;;12.30;78.20;;;;;;5016674;28;20053;-91
2022/05/29 06:08:20;;;;;;;6.05;1.13;;;12.30;78.60;;;;;;5018390;28;20039;-90
2022/05/29 06:10:46;;;;;;;4.90;1.17;;;12.30;78.80;;;;;;5015967;28;20367;-91
2022/05/29 06:13:14;;;;;;;3.95;0.90;;;12.30;78.80;;;;;;5016869;28;20037;-92
2022/05/29 06:15:44;;;;;;;5.05;1.10;;;12.40;79.20;;;;;;5000127;28;20076;-90
2022/05/29 06:18:10;;;;;;;2.70;0.90;;;12.50;79.00;;;;;;5016145;28;20028;-91
2022/05/29 06:20:36;;;;;;;1.63;0.73;;;12.50;78.90;;;;;;5017568;28;20041;-91
2022/05/29 06:23:02;;;;;;;2.25;1.00;;;12.60;78.70;;;;;;5016399;28;20025;-91
2022/05/29 06:25:27;;;;;;;3.03;0.85;;;12.70;78.60;;;;;;5015756;28;20021;-90
2022/05/29 06:27:53;;;;;;;1.67;0.82;;;12.70;78.40;;;;;;5016058;28;20025;-91
2022/05/29 06:30:19;;;;;;;3.58;1.30;;;12.80;78.50;;;;;;5015211;28;20033;-90
2022/05/29 06:32:45;;;;;;;1.80;1.05;;;12.80;78.60;;;;;;5015352;28;20117;-91
2022/05/29 06:35:13;;;;;;;3.83;0.85;;;12.90;78.60;;;;;;5016139;28;20029;-91
2022/05/29 06:37:39;;;;;;;3.05;1.10;;;12.90;78.60;;;;;;5015036;28;20060;-90
2022/05/29 06:40:06;;;;;;;3.60;1.00;;;13.00;78.60;;;;;;5015534;28;20092;-91
2022/05/29 06:42:32;;;;;;;1.80;0.80;;;13.00;78.50;;;;;;5015166;28;20029;-91
2022/05/29 06:44:59;;;;;;;2.40;1.00;;;13.10;78.50;;;;;;5011613;28;20022;-90
2022/05/29 06:47:25;;;;;;;2.70;0.80;;;13.10;78.50;;;;;;5012747;28;20034;-92
2022/05/29 06:49:51;;;;;;;3.05;0.88;;;13.20;78.40;;;;;;5015535;28;20116;-90
2022/05/29 06:52:18;;;;;;;4.10;0.90;;;13.20;78.30;;;;;;5208577;22;20020;-91
2022/05/29 06:54:43;;;;;;;2.25;0.90;;;13.20;78.00;;;;;;5037245;28;20697;-90
2022/05/29 06:57:12;;;;;;;3.55;0.98;;;13.30;78.00;;;;;;5038498;28;20025;-91
2022/05/29 07:07:58;;;;;;;3.35;1.20;;;13.40;77.90;;;;;;5044022;28;20055;-89
2022/05/29 07:10:24;;;;;;;3.15;0.98;;;13.50;78.00;;;;;;5085854;28;20037;-89
2022/05/29 07:12:50;;;;;;;1.90;1.08;;;13.50;77.80;;;;;;5078823;28;20005;-89
2022/05/29 07:15:18;;;;;;;3.53;1.00;;;13.50;77.50;;;;;;5075404;28;20071;-89
2022/05/29 07:17:44;;;;;;;5.95;0.80;;;13.40;77.30;;;;;;5042492;28;20160;-91
2022/05/29 07:20:10;;;;;;;3.75;1.08;;;13.50;77.60;;;;;;5038577;28;20025;-91
2022/05/29 07:22:36;;;;;;;3.38;0.95;;;13.60;77.40;;;;;;5038252;28;20075;-91
2022/05/29 07:25:03;;;;;;;4.32;1.10;;;13.70;77.40;;;;;;5036341;28;20448;-91
2022/05/29 07:27:28;;;;;;;4.15;1.30;;;13.70;77.30;;;;;;5037019;28;20025;-91
2022/05/29 07:29:54;;;;;;;4.50;1.42;;;13.70;77.20;;;;;;5037631;28;20044;-91
2022/05/29 07:32:21;;;;;;;5.63;1.35;;;13.80;77.50;;;;;;5037586;28;20027;-91
2022/05/29 07:34:47;;;;;;;4.25;1.27;;;13.90;77.40;;;;;;5037227;28;20500;-90
2022/05/29 07:37:15;;;;;;;4.03;1.23;;;13.90;77.30;;;;;;5035572;28;20036;-91
2022/05/29 07:39:45;;;;;;;2.55;0.90;;;14.00;77.20;;;;;;5070420;22;20059;-90
2022/05/29 07:44:56;;;;;;;3.83;1.08;;;14.00;76.80;;;;;;5079485;28;20031;-90
2022/05/29 07:47:23;;;;;;;4.78;1.45;;;14.00;76.60;;;;;;5066504;28;20046;-90
2022/05/29 07:49:49;;;;;;;5.80;1.27;;;14.00;76.70;;;;;;5078004;28;20032;-91
2022/05/29 07:52:14;;;;;;;2.70;1.42;;;14.00;76.80;;;;;;5078260;28;20024;-91
2022/05/29 07:54:40;;;;;;;6.20;1.35;;;14.10;77.10;;;;;;5078900;28;20021;-90
2022/05/29 07:57:07;;;;;;;2.28;1.27;;;14.20;77.00;;;;;;5054302;28;20458;-90
2022/05/29 07:59:33;;;;;;;3.65;1.20;;;14.30;76.80;;;;;;5043783;28;20072;-89
2022/05/29 08:01:59;;;;;;;9.68;1.67;;;14.50;76.70;;;;;;5045226;28;20481;-88
2022/05/29 08:04:27;;;;;;;7.53;1.70;;;14.80;76.40;;;;;;5046830;28;20021;-91
2022/05/29 08:06:53;;;;;;;6.05;1.30;;;15.10;76.10;;;;;;5059896;28;20023;-91
2022/05/29 08:09:19;;;;;;;5.85;1.48;;;15.20;75.90;;;;;;5073680;28;20032;-92
2022/05/29 08:11:45;;;;;;;6.70;1.13;;;15.20;75.70;;;;;;5051683;28;20390;-92
2022/05/29 08:14:10;;;;;;;7.30;1.38;;;15.40;75.70;;;;;;5038608;28;20035;-89
2022/05/29 08:16:36;;;;;;;6.80;1.20;;;15.60;75.30;;;;;;5055264;28;20025;-91
2022/05/29 08:19:03;;;;;;;3.97;1.30;;;16.00;75.20;;;;;;5038037;28;20032;-90
2022/05/29 08:21:29;;;;;;;8.55;1.30;;;16.30;74.80;;;;;;5038108;28;20021;-91
2022/05/29 08:32:07;;;;;;;6.78;1.60;;;16.90;73.50;;;;;;5073535;28;20043;-89
2022/05/29 08:34:32;;;;;;;5.50;1.50;;;16.90;73.30;;;;;;5055101;28;20025;-88
2022/05/29 08:36:58;;;;;;;4.60;1.10;;;16.90;73.10;;;;;;5073851;28;20049;-89
2022/05/29 08:39:24;;;;;;;4.53;1.20;;;16.90;73.20;;;;;;5055681;28;20509;-90
2022/05/29 08:41:52;;;;;;;4.03;1.30;;;16.80;72.90;;;;;;5056161;28;20025;-90
2022/05/29 08:44:27;;;;;;;4.63;1.40;;;16.70;72.80;;;;;;5055512;28;20024;-89
2022/05/29 08:47:00;;;;;;;5.43;1.45;;;16.60;72.50;;;;;;5055871;28;20115;-90
2022/05/29 08:49:30;;;;;;;7.10;1.48;;;16.60;72.40;;;;;;5056108;28;20514;-89
2022/05/29 08:52:14;;;;;;;3.88;1.33;;;16.60;72.50;;;;;;5053432;28;20420;-89
2022/05/29 08:54:42;;;;;;;6.53;1.27;;;16.50;72.70;;;;;;5055115;28;20389;-89
2022/05/29 08:57:33;;;;;;;9.27;1.58;;;16.30;72.50;;;;;;5056592;28;20024;-89
2022/05/29 09:00:07;;;;;;;5.53;1.33;;;16.10;72.20;;;;;;5055346;28;20081;-89
2022/05/29 09:02:50;;;;;;;19.35;10.35;;;15.90;72.40;;;;;;5055621;28;20090;-89
2022/05/29 09:06:04;;;;;;;6.72;2.03;;;15.80;72.90;;;;;;5051015;28;20070;-90
2022/05/29 09:08:39;;;;;;;1.92;1.00;;;15.80;73.00;;;;;;5035709;28;20119;-90
2022/05/29 09:11:09;;;;;;;6.07;1.17;;;15.90;73.00;;;;;;5072643;28;20024;-90
2022/05/29 09:13:40;;;;;;;5.43;1.38;;;15.90;72.60;;;;;;5072987;28;20094;-91
2022/05/29 09:16:14;;;;;;;5.07;1.40;;;15.90;72.10;;;;;;5056574;28;20448;-89
2022/05/29 09:19:01;;;;;;;5.47;1.45;;;16.30;71.70;;;;;;5056476;28;20056;-90
2022/05/29 09:21:36;;;;;;;6.53;1.10;;;17.20;71.30;;;;;;5074816;28;20016;-90
2022/05/29 09:24:30;;;;;;;6.80;1.30;;;18.00;70.70;;;;;;5056577;28;20031;-90
2022/05/29 09:26:56;;;;;;;3.03;1.05;;;18.60;70.20;;;;;;5074447;28;20009;-90
2022/05/29 09:29:22;;;;;;;2.90;0.95;;;18.60;69.80;;;;;;5077177;28;20092;-89
2022/05/29 09:31:47;;;;;;;4.60;1.10;;;18.40;69.20;;;;;;5082338;28;20034;-90
2022/05/29 09:34:13;;;;;;;7.55;1.42;;;18.20;68.90;;;;;;5056998;28;20112;-90
2022/05/29 09:36:59;;;;;;;3.33;0.90;;;17.90;69.10;;;;;;5062335;28;20016;-90
2022/05/29 09:39:35;;;;;;;4.40;1.13;;;17.70;69.50;;;;;;5093856;28;20089;-90
2022/05/29 09:42:24;;;;;;;2.90;1.17;;;17.40;69.90;;;;;;5059358;28;20378;-90
2022/05/29 09:45:15;;;;;;;4.93;1.20;;;17.10;70.20;;;;;;5054916;28;20032;-89
2022/05/29 09:50:57;;;;;;;4.97;1.30;;;16.70;70.30;;;;;;5073861;28;20035;-90
2022/05/29 09:53:28;;;;;;;4.88;1.17;;;16.50;70.40;;;;;;5053480;28;20504;-90
2022/05/29 09:56:03;;;;;;;1.90;0.90;;;16.40;70.70;;;;;;5054619;28;20473;-90
2022/05/29 09:58:36;;;;;;;3.67;1.00;;;16.20;71.20;;;;;;5055643;28;20525;-91
2022/05/29 10:01:05;;;;;;;3.47;1.20;;;16.10;70.50;;;;;;5055516;28;20031;-91
2022/05/29 10:03:51;;;;;;;7.28;1.20;;;16.10;70.70;;;;;;5055636;28;20024;-89
2022/05/29 10:06:42;;;;;;;3.72;1.20;;;15.90;70.60;;;;;;5036096;28;20029;-90
2022/05/29 10:09:10;;;;;;;2.97;1.15;;;15.80;71.00;;;;;;5037777;28;20029;-90
2022/05/29 10:11:37;;;;;;;3.60;1.00;;;15.80;70.80;;;;;;5041298;28;20025;-90
2022/05/29 10:14:42;;;;;;;3.45;1.30;;;15.70;71.10;;;;;;5040454;28;20031;-90
2022/05/29 10:17:35;;;;;;;5.72;1.42;;;15.70;71.10;;;;;;5057198;28;20043;-89
2022/05/29 10:20:01;;;;;;;1.42;0.70;;;15.70;71.00;;;;;;5056682;28;20060;-90
2022/05/29 10:22:41;;;;;;;6.78;1.23;;;15.80;70.50;;;;;;5053646;28;20062;-90
2022/05/29 10:25:22;;;;;;;4.15;0.90;;;15.90;70.60;;;;;;5085679;28;20028;-89
2022/05/29 10:27:49;;;;;;;5.93;1.48;;;15.90;70.20;;;;;;5058849;28;20036;-88
2022/05/29 10:30:31;;;;;;;3.75;1.05;;;15.80;70.10;;;;;;5058599;28;20024;-88
2022/05/29 10:33:22;;;;;;;4.32;1.25;;;15.80;70.20;;;;;;5076231;28;20085;-89
2022/05/29 10:35:50;;;;;;;48.15;31.92;;;16.00;70.40;;;;;;5048704;28;20017;-88
2022/05/29 10:38:19;;;;;;;5.72;3.13;;;16.10;70.20;;;;;;5058574;28;20020;-88
2022/05/29 10:40:47;;;;;;;3.53;1.23;;;16.20;69.60;;;;;;5065932;28;20035;-89
2022/05/29 10:43:34;;;;;;;4.20;1.10;;;16.30;69.60;;;;;;5075869;28;20045;-88
2022/05/29 10:46:11;;;;;;;5.57;1.00;;;16.30;69.70;;;;;;5089909;28;20013;-88
2022/05/29 10:49:03;;;;;;;5.97;1.08;;;16.30;69.70;;;;;;5066439;22;20041;-84
2022/05/29 10:51:47;;;;;;;3.50;0.93;;;16.10;69.40;;;;;;5051442;28;20064;-84
2022/05/29 10:54:24;;;;;;;3.13;0.75;;;16.00;69.70;;;;;;5072164;28;20033;-83
2022/05/29 10:57:06;;;;;;;4.22;0.90;;;15.80;69.20;;;;;;5048960;28;20048;-84
2022/05/29 10:59:58;;;;;;;6.23;1.00;;;15.70;69.40;;;;;;5027620;28;20517;-83
2022/05/29 11:05:46;;;;;;;32.58;18.95;;;15.40;69.20;;;;;;5053930;28;20036;-85
2022/05/29 11:08:33;;;;;;;4.32;1.02;;;15.30;69.20;;;;;;4992745;28;20041;-85
2022/05/29 11:11:16;;;;;;;3.17;1.05;;;15.20;70.00;;;;;;5039406;28;20068;-85
2022/05/29 11:13:45;;;;;;;3.53;1.10;;;15.10;69.80;;;;;;5048991;28;20033;-84
2022/05/29 11:16:10;;;;;;;1.65;0.82;;;15.10;69.80;;;;;;5017443;28;20018;-84
2022/05/29 11:18:57;;;;;;;1.92;0.88;;;15.10;70.20;;;;;;5015486;28;20478;-83
2022/05/29 11:22:04;;;;;;;1.38;0.80;;;15.10;70.00;;;;;;5049409;28;20072;-84
2022/05/29 11:24:48;;;;;;;2.95;0.70;;;15.00;69.80;;;;;;4999015;28;20037;-85
2022/05/29 11:27:41;;;;;;;3.72;0.90;;;15.00;69.40;;;;;;5014398;28;20502;-85
2022/05/29 11:30:20;;;;;;;2.63;0.80;;;14.90;69.30;;;;;;5029124;28;20159;-85
2022/05/29 11:33:05;;;;;;;1.52;0.68;;;14.80;69.20;;;;;;5051819;28;20079;-84
2022/05/29 11:36:02;;;;;;;3.45;0.80;;;14.80;69.20;;;;;;5030125;28;20432;-84
2022/05/29 11:38:49;;;;;;;1.20;0.70;;;14.80;69.40;;;;;;5037051;28;20552;-84
2022/05/29 11:41:31;;;;;;;2.30;0.82;;;14.80;69.10;;;;;;5045199;28;20032;-85
2022/05/29 11:44:07;;;;;;;3.00;0.90;;;14.80;69.00;;;;;;5050871;28;20031;-85
2022/05/29 11:52:37;;;;;;;3.75;1.00;;;14.90;68.70;;;;;;5055550;28;20089;-84
2022/05/29 11:55:04;;;;;;;3.00;0.95;;;14.90;69.10;;;;;;5056177;28;20036;-84
2022/05/29 11:57:54;;;;;;;110.25;66.65;;;15.00;69.00;;;;;;5054718;28;20029;-84
2022/05/29 12:00:28;;;;;;;2.60;1.10;;;15.10;69.30;;;;;;5037374;28;20025;-83
2022/05/29 12:03:36;;;;;;;2.50;0.80;;;15.10;68.70;;;;;;5053715;28;20031;-83
2022/05/29 12:06:13;;;;;;;3.55;1.10;;;15.20;69.00;;;;;;5053187;28;20075;-84
2022/05/29 12:08:48;;;;;;;3.45;1.05;;;15.20;68.40;;;;;;5037127;28;20029;-85
2022/05/29 12:11:40;;;;;;;3.60;1.02;;;15.30;68.40;;;;;;5036303;28;20052;-84
2022/05/29 12:14:31;;;;;;;2.45;0.88;;;15.30;68.50;;;;;;5052758;28;20095;-82
2022/05/29 12:17:16;;;;;;;2.63;0.80;;;15.30;68.40;;;;;;5032965;28;20100;-84
2022/05/29 12:19:47;;;;;;;3.20;0.70;;;15.30;68.20;;;;;;5036629;28;20096;-85
2022/05/29 12:22:19;;;;;;;6.47;1.10;;;15.30;68.60;;;;;;5036676;28;20028;-85
2022/05/29 12:24:49;;;;;;;3.70;0.77;;;15.30;68.00;;;;;;5035119;28;20025;-84
2022/05/29 12:27:21;;;;;;;3.05;1.00;;;15.20;67.60;;;;;;5039871;28;20029;-85
2022/05/29 12:29:51;;;;;;;3.15;1.50;;;15.20;67.80;;;;;;5045936;28;20115;-83
2022/05/29 12:32:30;;;;;;;5.10;1.35;;;14.80;68.00;;;;;;5064696;28;20052;-85
2022/05/29 12:35:26;;;;;;;14.15;8.15;;;14.50;69.10;;;;;;5030280;28;20088;-83
2022/05/29 12:38:01;;;;;;;5.55;1.33;;;14.30;70.00;;;;;;5038641;28;20025;-85
2022/05/29 12:40:49;;;;;;;5.38;1.35;;;14.20;70.70;;;;;;5037557;28;20096;-86
2022/05/29 12:43:47;;;;;;;2.85;1.17;;;14.00;70.90;;;;;;5056389;28;20068;-84
2022/05/29 12:46:30;;;;;;;3.13;1.25;;;13.70;71.40;;;;;;5048117;28;20044;-86
2022/05/29 12:49:24;;;;;;;3.63;1.13;;;13.60;72.00;;;;;;5036737;28;20084;-85
2022/05/29 12:51:56;;;;;;;3.28;1.20;;;13.50;72.40;;;;;;5036938;28;20037;-85
2022/05/29 12:54:38;;;;;;;3.72;1.30;;;13.30;72.80;;;;;;5035938;28;20091;-84
2022/05/29 12:57:29;;;;;;;7.28;1.30;;;13.30;73.30;;;;;;5021917;28;20040;-84
2022/05/29 13:00:15;;;;;;;2.08;1.23;;;13.20;73.30;;;;;;5036985;28;20651;-86
2022/05/29 13:03:03;;;;;;;2.35;0.98;;;13.10;73.50;;;;;;5035270;28;20485;-83
2022/05/29 13:05:42;;;;;;;2.20;0.90;;;12.90;73.80;;;;;;5035176;28;20025;-85
2022/05/29 13:08:28;;;;;;;3.20;1.05;;;12.80;74.40;;;;;;5036410;28;20021;-83
2022/05/29 13:10:55;;;;;;;2.90;1.17;;;12.70;74.90;;;;;;5053709;28;20047;-82
2022/05/29 13:13:30;;;;;;;5.75;2.08;;;12.70;75.40;;;;;;5036527;28;20031;-84
2022/05/29 13:16:30;;;;;;;2.60;1.20;;;12.80;76.10;;;;;;5034771;28;20060;-83
2022/05/29 13:22:04;;;;;;;2.88;1.35;;;12.80;76.20;;;;;;5051652;28;20086;-83
2022/05/29 13:24:46;;;;;;;2.20;1.10;;;12.80;76.50;;;;;;5052537;28;20032;-84
2022/05/29 13:27:17;;;;;;;3.47;1.40;;;12.90;76.70;;;;;;5028808;28;20029;-83
2022/05/29 13:29:49;;;;;;;4.65;1.27;;;12.90;76.60;;;;;;5037736;28;20111;-85
2022/05/29 13:32:15;;;;;;;3.13;1.33;;;12.90;76.80;;;;;;5036923;28;20079;-84
2022/05/29 13:34:46;;;;;;;4.35;1.10;;;13.00;77.00;;;;;;5034851;28;20052;-85
2022/05/29 13:37:24;;;;;;;3.65;1.30;;;13.00;77.20;;;;;;5036924;28;20021;-85
2022/05/29 13:40:11;;;;;;;3.45;1.33;;;13.00;77.20;;;;;;5054109;28;20040;-84
2022/05/29 13:42:45;;;;;;;3.97;1.10;;;13.00;77.20;;;;;;5056688;28;20124;-86
2022/05/29 13:45:23;;;;;;;1.48;1.00;;;13.10;77.10;;;;;;5036780;28;20033;-86
2022/05/29 13:48:12;;;;;;;3.60;1.13;;;13.10;76.90;;;;;;5056357;28;20075;-84
2022/05/29 13:50:40;;;;;;;1.98;1.17;;;13.10;76.70;;;;;;5037528;28;20035;-86
2022/05/29 13:53:20;;;;;;;2.17;1.15;;;13.20;77.20;;;;;;5038231;28;20013;-86
2022/05/29 13:55:59;;;;;;;2.78;0.93;;;13.30;77.10;;;;;;5035635;28;20017;-85
2022/05/29 14:04:29;;;;;;;3.58;1.00;;;13.70;77.30;;;;;;5054490;28;20044;-84
2022/05/29 14:07:13;;;;;;;6.53;1.42;;;13.90;77.80;;;;;;5036709;28;20084;-84
2022/05/29 14:09:57;;;;;;;2.45;0.98;;;14.00;77.70;;;;;;5034023;28;20694;-85
2022/05/29 14:12:23;;;;;;;2.13;0.95;;;14.10;77.60;;;;;;5054589;28;20037;-83